createdAt,value
2022-11-07T00:02:13.644Z,6.60
2022-11-07T00:04:42.894Z,7.05
2022-11-07T00:07:11.693Z,7.88
2022-11-07T00:09:40.174Z,8.85
2022-11-07T00:12:08.974Z,5.03
2022-11-07T00:14:37.452Z,7.93
2022-11-07T00:17:05.692Z,10.35
2022-11-07T00:19:34.093Z,9.07
2022-11-07T00:22:02.252Z,6.72
2022-11-07T00:24:30.443Z,5.10
2022-11-07T00:26:58.334Z,7.45
2022-11-07T00:29:28.013Z,6.35
2022-11-07T00:31:55.913Z,5.45
2022-11-07T00:34:24.333Z,6.80
2022-11-07T00:36:52.492Z,10.45
2022-11-07T00:39:20.961Z,5.35
2022-11-07T00:41:50.136Z,3.55
2022-11-07T00:44:18.576Z,5.32
2022-11-07T00:46:46.592Z,5.07
2022-11-07T00:49:14.882Z,5.47
2022-11-07T00:51:42.957Z,5.72
2022-11-07T00:54:11.532Z,5.38
2022-11-07T00:56:39.692Z,4.93
2022-11-07T00:59:08.173Z,4.88
2022-11-07T01:01:36.092Z,5.60
2022-11-07T01:04:24.962Z,5.32
2022-11-07T01:06:53.133Z,8.13
2022-11-07T01:09:22.032Z,7.22
2022-11-07T01:11:50.994Z,6.30
2022-11-07T01:14:22.403Z,4.80
2022-11-07T01:16:51.507Z,3.50
2022-11-07T01:19:20.292Z,4.05
2022-11-07T01:21:49.091Z,5.10
2022-11-07T01:24:19.127Z,6.18
2022-11-07T01:26:49.924Z,4.88
2022-11-07T01:29:19.938Z,5.95
2022-11-07T01:31:48.733Z,6.85
2022-11-07T01:34:18.246Z,4.07
2022-11-07T01:36:47.328Z,4.57
2022-11-07T01:39:15.530Z,13.35
2022-11-07T01:41:43.611Z,6.00
2022-11-07T01:44:12.092Z,4.65
2022-11-07T01:46:43.767Z,7.90
2022-11-07T01:49:37.249Z,6.10
2022-11-07T01:52:26.488Z,11.77
2022-11-07T01:55:10.681Z,6.00
2022-11-07T01:57:48.162Z,3.25
2022-11-07T02:00:20.803Z,3.70
2022-11-07T02:02:55.825Z,3.08
2022-11-07T02:05:31.533Z,3.72
2022-11-07T02:08:03.529Z,8.52
2022-11-07T02:10:34.898Z,5.03
2022-11-07T02:13:04.014Z,2.42
2022-11-07T02:15:35.379Z,6.82
2022-11-07T02:18:04.172Z,2.88
2022-11-07T02:20:32.965Z,3.15
2022-11-07T02:23:07.264Z,4.85
2022-11-07T02:25:36.974Z,9.27
2022-11-07T02:28:09.282Z,6.32
2022-11-07T02:30:39.415Z,12.23
2022-11-07T02:33:22.288Z,6.53
2022-11-07T02:35:52.313Z,5.60
2022-11-07T02:38:33.123Z,6.07
2022-11-07T02:41:10.409Z,5.82
2022-11-07T02:43:43.394Z,9.50
2022-11-07T02:46:13.755Z,8.45
2022-11-07T02:48:48.785Z,9.02
2022-11-07T02:51:17.443Z,8.20
2022-11-07T02:53:46.702Z,8.52
2022-11-07T02:56:15.682Z,4.43
2022-11-07T02:58:43.685Z,6.25
2022-11-07T03:01:12.721Z,5.47
2022-11-07T03:03:46.565Z,7.82
2022-11-07T03:06:18.384Z,8.27
2022-11-07T03:08:46.413Z,6.13
2022-11-07T03:11:14.837Z,8.10
2022-11-07T03:13:42.862Z,6.13
2022-11-07T03:16:11.692Z,8.48
2022-11-07T03:18:40.063Z,6.35
2022-11-07T03:21:08.293Z,5.57
2022-11-07T03:23:37.095Z,9.55
2022-11-07T03:26:05.916Z,10.50
2022-11-07T03:28:34.383Z,11.30
2022-11-07T03:31:04.720Z,9.77
2022-11-07T03:33:32.943Z,8.63
2022-11-07T03:36:01.284Z,7.78
2022-11-07T03:38:29.453Z,15.15
2022-11-07T03:40:57.607Z,13.20
2022-11-07T03:43:25.624Z,5.97
2022-11-07T03:45:53.881Z,9.43
2022-11-07T03:48:21.773Z,7.28
2022-11-07T03:50:49.949Z,7.55
2022-11-07T03:53:23.840Z,7.35
2022-11-07T03:55:55.974Z,5.88
2022-11-07T03:58:25.923Z,11.60
2022-11-07T04:00:54.215Z,14.13
2022-11-07T04:03:22.213Z,14.07
2022-11-07T04:05:50.504Z,11.35
2022-11-07T04:08:18.894Z,15.80
2022-11-07T04:10:47.123Z,12.93
2022-11-07T04:13:33.879Z,8.95
2022-11-07T04:16:21.134Z,11.80
2022-11-07T04:18:49.297Z,14.90
2022-11-07T04:21:17.454Z,16.05
2022-11-07T04:23:45.396Z,14.02
2022-11-07T04:26:32.326Z,10.70
2022-11-07T04:29:00.194Z,15.65
2022-11-07T04:31:28.346Z,16.48
2022-11-07T04:33:56.355Z,11.93
2022-11-07T04:36:24.646Z,15.00
2022-11-07T04:38:52.523Z,14.73
2022-11-07T04:41:25.294Z,15.65
2022-11-07T04:43:53.292Z,9.48
2022-11-07T04:46:23.535Z,13.60
2022-11-07T04:48:51.524Z,18.85
2022-11-07T04:51:22.413Z,13.65
2022-11-07T04:53:50.418Z,12.23
2022-11-07T04:56:18.574Z,11.68
2022-11-07T04:58:46.564Z,18.58
2022-11-07T05:01:14.743Z,12.75
2022-11-07T05:03:43.064Z,13.73
2022-11-07T05:06:14.894Z,14.52
2022-11-07T05:08:43.054Z,15.35
2022-11-07T05:11:11.363Z,17.33
2022-11-07T05:13:39.303Z,11.00
2022-11-07T05:16:15.269Z,14.32
2022-11-07T05:18:43.798Z,11.95
2022-11-07T05:21:12.368Z,12.95
2022-11-07T05:23:40.517Z,11.10
2022-11-07T05:26:10.218Z,12.15
2022-11-07T05:28:39.906Z,15.63
2022-11-07T05:31:12.287Z,23.20
2022-11-07T05:33:41.099Z,10.30
2022-11-07T05:36:15.960Z,10.13
2022-11-07T05:38:47.712Z,8.20
2022-11-07T05:41:17.808Z,14.18
2022-11-07T05:43:46.457Z,7.70
2022-11-07T05:46:15.638Z,7.45
2022-11-07T05:48:43.561Z,12.13
2022-11-07T05:51:12.042Z,7.00
2022-11-07T05:53:40.273Z,7.68
2022-11-07T05:56:09.037Z,13.45
2022-11-07T05:58:37.800Z,9.82
2022-11-07T06:01:07.242Z,10.55
2022-11-07T06:03:35.414Z,17.65
2022-11-07T06:06:04.222Z,7.07
2022-11-07T06:08:32.270Z,6.68
2022-11-07T06:11:05.660Z,15.00
2022-11-07T06:13:33.814Z,14.85
2022-11-07T06:16:02.079Z,10.38
2022-11-07T06:18:30.203Z,11.85
2022-11-07T06:21:02.122Z,6.85
2022-11-07T06:23:30.280Z,11.68
2022-11-07T06:25:58.772Z,14.70
2022-11-07T06:28:26.920Z,8.35
2022-11-07T06:31:00.811Z,8.00
2022-11-07T06:33:30.603Z,7.82
2022-11-07T06:36:11.786Z,7.60
2022-11-07T06:38:41.015Z,10.35
2022-11-07T06:41:13.422Z,7.05
2022-11-07T06:43:41.801Z,8.63
2022-11-07T06:46:14.542Z,11.15
2022-11-07T06:48:42.613Z,6.57
2022-11-07T06:51:12.112Z,11.55
2022-11-07T06:53:40.845Z,16.60
2022-11-07T06:56:16.411Z,9.25
2022-11-07T06:58:44.632Z,6.57
2022-11-07T07:01:15.630Z,8.57
2022-11-07T07:03:44.683Z,7.88
2022-11-07T07:06:16.445Z,9.05
2022-11-07T07:08:46.133Z,6.38
2022-11-07T07:11:16.293Z,7.63
2022-11-07T07:13:44.363Z,4.47
2022-11-07T07:16:13.480Z,8.25
2022-11-07T07:18:41.762Z,8.95
2022-11-07T07:21:13.012Z,7.10
2022-11-07T07:23:41.807Z,8.90
2022-11-07T07:26:16.372Z,12.23
2022-11-07T07:28:44.691Z,8.50
2022-11-07T07:31:16.902Z,6.00
2022-11-07T07:33:46.993Z,9.05
2022-11-07T07:36:20.474Z,12.98
2022-11-07T07:41:19.091Z,7.80
2022-11-07T07:43:47.342Z,6.10
2022-11-07T07:46:21.801Z,7.13
2022-11-07T07:48:50.291Z,15.32
2022-11-07T07:51:18.477Z,5.60
2022-11-07T07:53:46.589Z,5.65
2022-11-07T07:56:15.717Z,8.02
2022-11-07T07:58:43.961Z,6.47
2022-11-07T08:01:12.488Z,6.05
2022-11-07T08:04:00.227Z,5.82
2022-11-07T08:06:29.184Z,6.80
2022-11-07T08:08:57.372Z,15.27
2022-11-07T08:11:25.810Z,7.40
2022-11-07T08:13:59.757Z,10.32
2022-11-07T08:16:30.160Z,9.88
2022-11-07T08:18:58.287Z,16.25
2022-11-07T08:21:27.013Z,17.73
2022-11-07T08:23:55.240Z,7.85
2022-11-07T08:26:23.727Z,13.95
2022-11-07T08:28:54.118Z,8.80
2022-11-07T08:31:22.922Z,11.00
2022-11-07T08:33:51.054Z,9.35
2022-11-07T08:36:19.560Z,6.32
2022-11-07T08:38:47.793Z,7.65
2022-11-07T08:41:21.766Z,7.07
2022-11-07T08:43:50.511Z,8.35
2022-11-07T08:46:18.920Z,7.25
2022-11-07T08:48:47.082Z,9.95
2022-11-07T08:51:15.571Z,6.97
2022-11-07T08:53:44.052Z,12.68
2022-11-07T08:56:12.772Z,7.35
2022-11-07T08:58:41.001Z,9.98
2022-11-07T09:01:10.504Z,9.15
2022-11-07T09:03:50.714Z,10.07
2022-11-07T09:06:23.469Z,13.15
2022-11-07T09:08:51.631Z,10.90
2022-11-07T09:11:20.360Z,16.73
2022-11-07T09:13:48.520Z,11.13
2022-11-07T09:16:19.897Z,14.20
2022-11-07T09:18:49.930Z,11.93
2022-11-07T09:21:22.388Z,10.48
2022-11-07T09:23:52.583Z,15.27
2022-11-07T09:26:21.148Z,10.45
2022-11-07T09:28:52.995Z,11.80
2022-11-07T09:31:22.633Z,10.07
2022-11-07T09:33:50.481Z,11.88
2022-11-07T09:36:18.639Z,14.52
2022-11-07T09:38:46.506Z,21.67
2022-11-07T09:41:26.807Z,13.95
2022-11-07T09:44:04.951Z,18.02
2022-11-07T09:46:44.846Z,12.75
2022-11-07T09:49:44.344Z,12.70
2022-11-07T09:52:51.849Z,14.90
2022-11-07T09:55:27.037Z,15.55
2022-11-07T09:58:01.238Z,16.13
2022-11-07T10:00:33.278Z,13.20
2022-11-07T10:03:03.758Z,17.95
2022-11-07T10:05:55.527Z,14.32
2022-11-07T10:08:45.527Z,13.27
2022-11-07T10:11:37.606Z,14.40
2022-11-07T10:14:25.287Z,22.25
2022-11-07T10:16:55.648Z,18.42
2022-11-07T10:19:29.917Z,15.13
2022-11-07T10:22:10.256Z,13.88
2022-11-07T10:25:17.128Z,15.65
2022-11-07T10:27:59.006Z,17.30
2022-11-07T10:30:27.207Z,13.27
2022-11-07T10:33:01.127Z,16.13
2022-11-07T10:35:32.487Z,10.48
2022-11-07T10:38:22.418Z,13.35
2022-11-07T10:40:51.922Z,12.50
2022-11-07T10:43:30.159Z,11.20
2022-11-07T10:46:00.007Z,15.65
2022-11-07T10:48:29.847Z,15.93
2022-11-07T10:50:58.566Z,11.63
2022-11-07T10:53:27.767Z,11.73
2022-11-07T10:55:56.501Z,11.88
2022-11-07T10:58:24.397Z,14.90
2022-11-07T11:01:03.191Z,11.07
2022-11-07T11:03:44.460Z,12.98
2022-11-07T11:06:24.020Z,11.15
2022-11-07T11:08:52.925Z,17.40
2022-11-07T11:11:33.153Z,16.92
2022-11-07T11:14:16.742Z,22.98
2022-11-07T11:16:45.027Z,11.68
2022-11-07T11:19:31.220Z,15.23
2022-11-07T11:22:00.342Z,13.23
2022-11-07T11:24:33.378Z,14.13
2022-11-07T11:29:56.388Z,15.38
2022-11-07T11:32:32.007Z,15.10
2022-11-07T11:35:09.439Z,17.02
2022-11-07T11:37:43.030Z,16.45
2022-11-07T11:40:19.228Z,16.17
2022-11-07T11:43:17.559Z,18.00
2022-11-07T11:46:07.111Z,17.05
2022-11-07T11:48:44.491Z,23.50
2022-11-07T11:51:36.978Z,15.23
2022-11-07T11:54:10.256Z,19.13
2022-11-07T11:56:53.447Z,15.73
2022-11-07T12:02:15.192Z,21.13
2022-11-07T12:05:10.858Z,19.00
2022-11-07T12:07:55.847Z,13.80
2022-11-07T12:10:29.775Z,18.45
2022-11-07T12:13:22.251Z,16.25
2022-11-07T12:16:15.642Z,16.10
2022-11-07T12:19:04.217Z,16.35
2022-11-07T12:21:36.648Z,20.83
2022-11-07T12:24:36.829Z,18.00
2022-11-07T12:27:20.279Z,15.32
2022-11-07T12:30:21.459Z,23.05
2022-11-07T12:33:28.070Z,18.38
2022-11-07T12:36:25.308Z,18.88
2022-11-07T12:38:53.406Z,16.35
2022-11-07T12:41:52.929Z,15.88
2022-11-07T12:44:49.367Z,16.40
2022-11-07T12:47:46.906Z,22.30
2022-11-07T12:50:43.004Z,18.10
2022-11-07T12:54:00.660Z,20.38
2022-11-07T12:56:35.488Z,19.08
2022-11-07T12:59:10.728Z,28.20
2022-11-07T13:01:48.967Z,23.63
2022-11-07T13:04:24.868Z,28.75
2022-11-07T13:07:06.258Z,18.70
2022-11-07T13:09:51.213Z,18.30
2022-11-07T13:12:30.412Z,21.15
2022-11-07T13:14:58.905Z,21.08
2022-11-07T13:17:38.318Z,24.83
2022-11-07T13:20:26.535Z,22.23
2022-11-07T13:23:02.423Z,25.80
2022-11-07T13:25:32.542Z,29.13
2022-11-07T13:28:04.811Z,24.13
2022-11-07T13:30:38.414Z,23.60
2022-11-07T13:33:09.764Z,20.67
2022-11-07T13:35:39.210Z,27.33
2022-11-07T13:38:24.333Z,27.98
2022-11-07T13:40:59.212Z,17.10
2022-11-07T13:43:39.581Z,20.63
2022-11-07T13:46:17.281Z,21.48
2022-11-07T13:48:56.962Z,20.13
2022-11-07T13:51:51.361Z,19.17
2022-11-07T13:54:30.752Z,21.35
2022-11-07T13:57:09.453Z,24.48
2022-11-07T13:59:53.025Z,19.48
2022-11-07T14:02:27.976Z,27.02
2022-11-07T14:05:19.263Z,23.48
2022-11-07T14:07:51.503Z,23.38
2022-11-07T14:10:47.378Z,27.08
2022-11-07T14:13:30.482Z,22.25
2022-11-07T14:16:35.804Z,23.33
2022-11-07T14:19:14.524Z,20.25
2022-11-07T14:21:46.204Z,25.90
2022-11-07T14:24:27.804Z,21.45
2022-11-07T14:27:02.063Z,21.23
2022-11-07T14:29:30.829Z,22.20
2022-11-07T14:32:04.744Z,20.17
2022-11-07T14:34:36.912Z,23.60
2022-11-07T14:37:16.829Z,31.27
2022-11-07T14:39:54.512Z,27.05
2022-11-07T14:42:25.749Z,23.27
2022-11-07T14:44:57.891Z,17.75
2022-11-07T14:47:34.693Z,24.70
2022-11-07T14:50:04.470Z,24.15
2022-11-07T14:53:11.640Z,24.80
2022-11-07T14:55:47.518Z,28.20
2022-11-07T14:58:18.973Z,29.70
2022-11-07T15:00:56.122Z,23.02
2022-11-07T15:03:32.441Z,27.02
2022-11-07T15:06:01.921Z,22.48
2022-11-07T15:08:37.784Z,22.95
2022-11-07T15:11:15.162Z,27.80
2022-11-07T15:13:48.183Z,25.80
2022-11-07T15:16:23.078Z,23.95
2022-11-07T15:19:01.135Z,21.27
2022-11-07T15:21:51.362Z,19.38
2022-11-07T15:24:43.853Z,25.60
2022-11-07T15:27:14.656Z,21.30
2022-11-07T15:29:57.772Z,27.80
2022-11-07T15:32:32.651Z,29.90
2022-11-07T15:35:30.210Z,27.27
2022-11-07T15:38:15.771Z,26.48
2022-11-07T15:40:44.495Z,34.05
2022-11-07T15:43:12.655Z,22.52
2022-11-07T15:45:42.418Z,31.02
2022-11-07T15:48:17.859Z,20.90
2022-11-07T15:50:49.043Z,32.63
2022-11-07T15:53:26.093Z,25.73
2022-11-07T15:55:57.461Z,25.77
2022-11-07T15:58:28.492Z,20.50
2022-11-07T16:00:59.216Z,26.98
2022-11-07T16:03:28.431Z,29.25
2022-11-07T16:06:02.251Z,25.67
2022-11-07T16:11:01.769Z,36.38
2022-11-07T16:13:30.245Z,35.63
2022-11-07T16:16:01.274Z,36.50
2022-11-07T16:18:37.142Z,41.33
2022-11-07T16:21:05.733Z,48.28
2022-11-07T16:23:33.772Z,31.30
2022-11-07T16:26:02.893Z,38.15
2022-11-07T16:28:35.532Z,33.38
2022-11-07T16:31:04.653Z,28.58
2022-11-07T16:33:33.463Z,30.20
2022-11-07T16:36:08.012Z,36.50
2022-11-07T16:38:36.812Z,37.72
2022-11-07T16:41:05.325Z,45.17
2022-11-07T16:43:35.461Z,36.17
2022-11-07T16:46:05.762Z,44.40
2022-11-07T16:48:38.093Z,38.92
2022-11-07T16:51:06.894Z,37.42
2022-11-07T16:53:35.363Z,36.83
2022-11-07T16:56:04.481Z,41.38
2022-11-07T16:58:34.885Z,43.40
2022-11-07T17:01:06.382Z,41.67
2022-11-07T17:03:34.754Z,41.58
2022-11-07T17:06:04.503Z,29.88
2022-11-07T17:08:41.600Z,44.35
2022-11-07T17:11:14.242Z,38.70
2022-11-07T17:13:42.111Z,31.25
2022-11-07T17:16:35.211Z,39.85
2022-11-07T17:19:05.293Z,34.15
2022-11-07T17:21:37.050Z,27.38
2022-11-07T17:24:05.770Z,33.08
2022-11-07T17:26:38.081Z,27.02
2022-11-07T17:29:09.121Z,39.13
2022-11-07T17:31:37.505Z,34.20
2022-11-07T17:47:03.201Z,33.22
2022-11-07T17:49:32.352Z,25.90
2022-11-07T17:52:01.249Z,36.95
2022-11-07T17:54:29.934Z,30.55
2022-11-07T17:56:58.289Z,30.17
2022-11-07T17:59:27.010Z,37.63
2022-11-07T18:01:55.198Z,29.08
2022-11-07T18:04:24.609Z,31.65
2022-11-07T18:06:52.829Z,27.42
2022-11-07T18:09:21.333Z,32.85
2022-11-07T18:11:49.702Z,33.38
2022-11-07T18:14:19.069Z,33.58
2022-11-07T18:16:47.154Z,29.33
2022-11-07T18:19:17.695Z,32.95
2022-11-07T18:21:46.335Z,33.15
2022-11-07T18:24:16.140Z,35.03
2022-11-07T18:26:44.206Z,39.40
2022-11-07T18:29:13.836Z,41.05
2022-11-07T18:31:41.854Z,37.63
2022-11-07T18:34:12.230Z,28.80
2022-11-07T18:36:43.016Z,35.85
2022-11-07T18:39:17.775Z,34.33
2022-11-07T18:41:46.231Z,27.25
2022-11-07T18:44:15.110Z,26.27
2022-11-07T18:46:43.885Z,28.08
2022-11-07T18:49:14.514Z,25.75
2022-11-07T18:51:44.190Z,25.92
2022-11-07T18:54:14.381Z,28.35
2022-11-07T18:56:43.645Z,44.78
2022-11-07T18:59:12.149Z,31.85
2022-11-07T19:01:40.631Z,29.95
2022-11-07T19:04:11.987Z,28.30
2022-11-07T19:06:56.174Z,38.00
2022-11-07T19:09:30.716Z,37.85
2022-11-07T19:12:01.580Z,41.70
2022-11-07T19:14:31.446Z,30.00
2022-11-07T19:16:59.796Z,39.42
2022-11-07T19:19:30.088Z,33.90
2022-11-07T19:21:58.316Z,36.45
2022-11-07T19:24:26.796Z,34.72
2022-11-07T19:26:55.117Z,35.90
2022-11-07T19:29:23.763Z,41.35
2022-11-07T19:31:52.306Z,29.33
2022-11-07T19:34:21.606Z,25.50
2022-11-07T19:36:49.767Z,29.40
2022-11-07T19:39:18.355Z,34.03
2022-11-07T19:41:46.567Z,37.25
2022-11-07T19:44:16.067Z,31.02
2022-11-07T19:46:45.095Z,30.77
2022-11-07T19:49:13.647Z,26.17
2022-11-07T19:51:41.795Z,28.67
2022-11-07T19:54:10.226Z,39.53
2022-11-07T19:56:39.869Z,36.28
2022-11-07T19:59:08.396Z,33.78
2022-11-07T20:01:37.110Z,29.55
2022-11-07T20:04:05.860Z,26.48
2022-11-07T20:06:37.283Z,25.92
2022-11-07T20:09:08.564Z,36.05
2022-11-07T20:11:38.340Z,27.95
2022-11-07T20:14:07.105Z,33.97
2022-11-07T20:16:39.106Z,37.13
2022-11-07T20:19:07.856Z,31.33
2022-11-07T20:21:35.956Z,33.47
2022-11-07T20:24:05.899Z,38.65
2022-11-07T20:26:34.047Z,30.38
2022-11-07T20:29:03.252Z,35.25
2022-11-07T20:31:34.573Z,30.20
2022-11-07T20:34:06.469Z,31.60
2022-11-07T20:36:35.678Z,27.80
2022-11-07T20:39:05.527Z,29.85
2022-11-07T20:41:36.098Z,33.90
2022-11-07T20:44:07.437Z,27.80
2022-11-07T20:46:38.908Z,31.88
2022-11-07T20:49:09.549Z,29.95
2022-11-07T20:51:38.388Z,32.60
2022-11-07T20:54:07.578Z,29.92
2022-11-07T20:56:36.128Z,25.02
2022-11-07T20:59:06.629Z,27.70
2022-11-07T21:01:38.214Z,27.77
2022-11-07T21:04:18.567Z,33.07
2022-11-07T21:06:46.689Z,31.80
2022-11-07T21:09:15.290Z,28.52
2022-11-07T21:11:43.348Z,31.77
2022-11-07T21:14:11.900Z,28.45
2022-11-07T21:16:40.229Z,25.90
2022-11-07T21:19:09.851Z,38.97
2022-11-07T21:21:37.878Z,33.45
2022-11-07T21:24:06.652Z,34.38
2022-11-07T21:26:39.417Z,36.25
2022-11-07T21:29:09.618Z,26.83
2022-11-07T21:31:39.391Z,70.95
2022-11-07T21:34:11.282Z,105.70
2022-11-07T21:36:39.399Z,40.55
2022-11-07T21:39:08.070Z,37.00
2022-11-07T21:41:36.879Z,32.05
2022-11-07T21:44:05.578Z,27.88
2022-11-07T21:46:37.266Z,37.47
2022-11-07T21:49:06.606Z,26.90
2022-11-07T21:51:35.757Z,24.50
2022-11-07T21:54:06.228Z,20.95
2022-11-07T21:56:39.481Z,23.27
2022-11-07T21:59:12.369Z,32.60
2022-11-07T22:01:41.645Z,21.17
2022-11-07T22:04:13.692Z,22.50
2022-11-07T22:06:45.356Z,26.98
2022-11-07T22:09:17.900Z,29.40
2022-11-07T22:11:45.961Z,26.65
2022-11-07T22:14:17.168Z,30.10
2022-11-07T22:16:46.277Z,21.05
2022-11-07T22:19:16.938Z,23.50
2022-11-07T22:21:45.011Z,17.00
2022-11-07T22:24:13.327Z,23.55
2022-11-07T22:26:41.471Z,23.40
2022-11-07T22:29:09.991Z,18.63
2022-11-07T22:31:38.119Z,23.10
2022-11-07T22:34:06.520Z,25.13
2022-11-07T22:36:34.708Z,23.50
2022-11-07T22:39:04.727Z,21.95
2022-11-07T22:41:33.420Z,17.70
2022-11-07T22:44:17.832Z,19.45
2022-11-07T22:46:47.891Z,20.35
2022-11-07T22:49:15.968Z,24.13
2022-11-07T22:51:44.438Z,30.55
2022-11-07T22:54:14.297Z,55.53
2022-11-07T22:56:42.850Z,25.88
2022-11-07T22:59:11.838Z,19.48
2022-11-07T23:01:43.021Z,21.85
2022-11-07T23:04:15.568Z,32.42
2022-11-07T23:06:45.267Z,33.90
2022-11-07T23:09:15.658Z,28.48
2022-11-07T23:11:46.516Z,27.15
2022-11-07T23:14:19.728Z,23.42
2022-11-07T23:16:53.897Z,22.45
2022-11-07T23:19:25.267Z,43.45
2022-11-07T23:21:57.499Z,16.35
2022-11-07T23:24:25.748Z,21.40
2022-11-07T23:26:54.278Z,19.52
2022-11-07T23:29:24.779Z,24.90
2022-11-07T23:31:53.715Z,19.13
2022-11-07T23:34:22.933Z,23.73
2022-11-07T23:36:52.048Z,15.50
2022-11-07T23:39:22.612Z,16.05
2022-11-07T23:41:51.099Z,29.13
2022-11-07T23:44:19.198Z,17.20
2022-11-07T23:47:05.898Z,19.05
2022-11-07T23:49:52.598Z,13.98
2022-11-07T23:52:21.530Z,17.95
2022-11-07T23:55:09.790Z,26.25
2022-11-07T23:57:57.909Z,19.60
